Time;durP1;ratioP1;P1;durP2;ratioP2;P2;SDS_P1;SDS_P2;PMS_P1;PMS_P2;Temp;Humidity;BMP_temperature;BMP_pressure;BME280_temperature;BME280_humidity;BME280_pressure;Samples;Min_cycle;Max_cycle;Signal;HPM_P1;HPM_P2
2023/05/08 00:01:18;;;;;;;3.90;3.50;;;;;16.20;98849.00;;;;5032413;28;20034;-66
2023/05/08 00:03:45;;;;;;;3.97;3.55;;;;;16.20;98862.00;;;;5036653;28;20046;-66
2023/05/08 00:06:12;;;;;;;6.25;3.53;;;;;16.20;98854.00;;;;5036953;28;20406;-67
2023/05/08 00:08:39;;;;;;;3.60;3.30;;;;;16.20;98859.00;;;;5034863;28;20038;-66
2023/05/08 00:11:05;;;;;;;4.35;3.95;;;;;16.20;98857.00;;;;5035012;28;20045;-66
2023/05/08 00:13:32;;;;;;;6.07;4.05;;;;;16.20;98852.00;;;;5035131;28;20095;-65
2023/05/08 00:15:58;;;;;;;7.15;3.88;;;;;16.20;98852.00;;;;5035181;28;20045;-65
2023/05/08 00:18:25;;;;;;;8.82;3.72;;;;;16.20;98859.00;;;;5017513;28;20045;-65
2023/05/08 00:20:52;;;;;;;4.65;4.25;;;;;16.20;98849.00;;;;5033341;28;20053;-65
2023/05/08 00:23:20;;;;;;;4.95;4.47;;;;;16.10;98849.00;;;;5033470;28;20080;-65
2023/05/08 00:25:47;;;;;;;4.95;4.43;;;;;16.10;98851.00;;;;5034922;28;20509;-65
2023/05/08 00:28:13;;;;;;;5.50;4.45;;;;;16.20;98855.00;;;;5034783;28;20037;-65
2023/05/08 00:30:41;;;;;;;4.63;4.22;;;;;16.20;98857.00;;;;5033125;28;20068;-65
2023/05/08 00:33:08;;;;;;;6.97;4.45;;;;;16.20;98855.00;;;;5034581;28;20394;-65
2023/05/08 00:35:35;;;;;;;5.82;4.93;;;;;16.20;98855.00;;;;5034634;28;20045;-65
2023/05/08 00:38:02;;;;;;;5.93;4.53;;;;;16.20;98856.00;;;;5033456;28;20052;-66
2023/05/08 00:40:28;;;;;;;6.80;4.93;;;;;16.20;98850.00;;;;5033182;28;20034;-66
2023/05/08 00:42:55;;;;;;;5.75;5.15;;;;;16.20;98860.00;;;;5033148;28;20053;-66
2023/05/08 00:45:21;;;;;;;6.28;5.47;;;;;16.30;98861.00;;;;5034446;28;20037;-66
2023/05/08 00:47:49;;;;;;;6.78;4.85;;;;;16.30;98860.00;;;;5016897;28;20053;-66
2023/05/08 00:50:16;;;;;;;5.40;4.90;;;;;16.30;98860.00;;;;5034002;28;20037;-66
2023/05/08 00:52:43;;;;;;;6.57;5.97;;;;;16.20;98862.00;;;;5033001;28;20050;-66
2023/05/08 00:55:09;;;;;;;6.70;6.00;;;;;16.20;98852.00;;;;5032956;28;20049;-65
2023/05/08 00:57:37;;;;;;;6.28;5.68;;;;;16.20;98858.00;;;;5033268;28;20147;-65
2023/05/08 01:00:04;;;;;;;6.95;5.70;;;;;16.30;98853.00;;;;5033087;28;20038;-66
2023/05/08 01:02:31;;;;;;;6.72;5.75;;;;;16.30;98858.00;;;;5034395;28;20076;-66
2023/05/08 01:04:58;;;;;;;5.97;5.38;;;;;16.20;98857.00;;;;5033392;28;20053;-66
2023/05/08 01:07:26;;;;;;;7.07;6.38;;;;;16.20;98854.00;;;;5034417;28;20367;-66
2023/05/08 01:09:53;;;;;;;6.88;5.63;;;;;16.10;98852.00;;;;5032681;28;20483;-66
2023/05/08 01:12:28;;;;;;;7.78;5.82;;;;;16.10;98852.00;;;;5033009;28;20048;-66
2023/05/08 01:15:13;;;;;;;6.55;5.85;;;;;16.20;98854.00;;;;5033446;28;20414;-66
2023/05/08 01:17:55;;;;;;;6.43;5.63;;;;;16.20;98855.00;;;;5033819;28;20104;-66
2023/05/08 01:20:45;;;;;;;5.55;4.82;;;;;16.20;98851.00;;;;5032135;28;20049;-66
2023/05/08 01:23:46;;;;;;;8.55;6.38;;;;;16.20;98849.00;;;;5032071;28;20560;-66
2023/05/08 01:26:12;;;;;;;7.28;6.55;;;;;16.10;98855.00;;;;5033513;28;20046;-66
2023/05/08 01:29:01;;;;;;;7.75;6.45;;;;;16.20;98853.00;;;;5015991;28;20060;-66
2023/05/08 01:32:00;;;;;;;6.88;6.25;;;;;16.10;98853.00;;;;5032453;28;20042;-66
2023/05/08 01:34:31;;;;;;;9.15;6.85;;;;;16.20;98856.00;;;;5029190;28;20041;-66
2023/05/08 01:37:11;;;;;;;8.05;7.15;;;;;16.10;98855.00;;;;5032105;28;20069;-66
2023/05/08 01:40:09;;;;;;;9.05;7.88;;;;;16.00;98855.00;;;;5032029;28;20049;-66
2023/05/08 01:42:52;;;;;;;10.10;8.63;;;;;16.00;98855.00;;;;5033315;28;20522;-66
2023/05/08 01:45:25;;;;;;;10.63;8.93;;;;;15.90;98853.00;;;;5033229;28;20061;-66
2023/05/08 01:48:06;;;;;;;10.80;9.63;;;;;15.90;98861.00;;;;5032109;28;20051;-66
2023/05/08 01:50:39;;;;;;;10.80;9.25;;;;;15.90;98865.00;;;;5032948;28;20037;-66
2023/05/08 01:53:35;;;;;;;11.13;8.85;;;;;15.90;98871.00;;;;5031827;28;20041;-66
2023/05/08 01:56:10;;;;;;;11.10;8.73;;;;;15.90;98870.00;;;;5031058;28;20056;-66
2023/05/08 01:58:38;;;;;;;11.35;8.88;;;;;16.00;98872.00;;;;5032885;28;20127;-65
2023/05/08 02:01:05;;;;;;;10.32;9.13;;;;;16.10;98876.00;;;;5032701;28;20039;-66
2023/05/08 02:03:33;;;;;;;11.65;9.43;;;;;16.10;98875.00;;;;5015444;28;20056;-66
2023/05/08 02:06:01;;;;;;;12.38;9.75;;;;;16.20;98883.00;;;;5031578;28;20052;-66
2023/05/08 02:08:29;;;;;;;13.35;9.65;;;;;16.20;98892.00;;;;5032916;28;20445;-66
2023/05/08 02:10:58;;;;;;;9.25;8.30;;;;;16.20;98892.00;;;;5031532;28;20041;-66
2023/05/08 02:13:26;;;;;;;10.88;9.50;;;;;16.40;98889.00;;;;5032619;28;20033;-67
2023/05/08 02:15:56;;;;;;;10.45;8.38;;;;;16.40;98897.00;;;;5015383;28;20410;-67
2023/05/08 02:18:23;;;;;;;11.48;9.63;;;;;16.40;98890.00;;;;5031981;28;20053;-67
2023/05/08 02:20:52;;;;;;;11.30;9.68;;;;;16.40;98893.00;;;;5032486;28;20065;-67
2023/05/08 02:23:21;;;;;;;11.40;9.32;;;;;16.30;98892.00;;;;5036228;28;20052;-67
2023/05/08 02:25:49;;;;;;;9.82;8.82;;;;;16.30;98885.00;;;;5050049;28;20087;-67
2023/05/08 02:28:17;;;;;;;10.27;9.27;;;;;16.30;98886.00;;;;5051032;28;20497;-67
2023/05/08 02:30:45;;;;;;;11.13;10.02;;;;;16.10;98883.00;;;;5050808;28;20053;-67
2023/05/08 02:33:13;;;;;;;10.30;9.20;;;;;16.10;98881.00;;;;5052321;28;20482;-67
2023/05/08 02:35:43;;;;;;;9.80;8.18;;;;;16.20;98889.00;;;;5051270;28;20044;-67
2023/05/08 02:38:12;;;;;;;9.32;8.35;;;;;16.20;98889.00;;;;5051070;28;20045;-67
2023/05/08 02:40:44;;;;;;;8.25;7.20;;;;;16.20;98888.00;;;;5050856;28;20108;-67
2023/05/08 02:43:11;;;;;;;9.02;8.13;;;;;16.20;98887.00;;;;5051265;28;20498;-66
2023/05/08 02:46:25;;;;;;;9.20;8.07;;;;;16.20;98889.00;;;;5054497;28;20112;-66
2023/05/08 02:49:03;;;;;;;9.75;8.02;;;;;16.20;98887.00;;;;5068432;28;20025;-66
2023/05/08 02:51:45;;;;;;;10.05;8.38;;;;;16.10;98884.00;;;;5034849;28;20055;-66
2023/05/08 02:54:35;;;;;;;10.25;7.93;;;;;16.10;98885.00;;;;5052285;28;20475;-66
2023/05/08 02:57:21;;;;;;;10.95;8.32;;;;;16.00;98888.00;;;;5050848;28;20589;-67
2023/05/08 02:59:59;;;;;;;10.88;7.93;;;;;16.10;98889.00;;;;5052285;28;20045;-67
2023/05/08 03:02:34;;;;;;;9.63;8.63;;;;;16.20;98885.00;;;;5050689;28;20140;-66
2023/05/08 03:05:23;;;;;;;9.52;7.93;;;;;16.20;98892.00;;;;5034509;28;20682;-66
2023/05/08 03:07:53;;;;;;;9.85;8.88;;;;;16.20;98890.00;;;;5050752;28;20049;-66
2023/05/08 03:10:27;;;;;;;9.52;8.07;;;;;16.10;98886.00;;;;5050474;28;20106;-66
2023/05/08 03:12:56;;;;;;;10.02;8.95;;;;;16.10;98883.00;;;;5051066;28;20451;-66
2023/05/08 03:15:27;;;;;;;10.35;9.25;;;;;16.10;98881.00;;;;5050800;28;20048;-66
2023/05/08 03:18:01;;;;;;;9.98;8.90;;;;;16.10;98882.00;;;;5050739;28;20049;-66
2023/05/08 03:20:32;;;;;;;9.23;8.23;;;;;16.10;98886.00;;;;5050545;28;20541;-66
2023/05/08 03:23:02;;;;;;;10.77;9.05;;;;;16.20;98893.00;;;;5034384;28;20049;-66
2023/05/08 03:25:29;;;;;;;13.75;9.73;;;;;16.20;98891.00;;;;5050574;28;20087;-66
2023/05/08 03:27:57;;;;;;;10.82;8.60;;;;;16.30;98889.00;;;;5050379;28;20053;-66
2023/05/08 03:30:26;;;;;;;10.30;9.20;;;;;16.30;98892.00;;;;5050288;28;20413;-66
2023/05/08 03:33:00;;;;;;;9.73;8.57;;;;;16.30;98887.00;;;;5050549;28;20052;-66
2023/05/08 03:35:27;;;;;;;9.88;8.80;;;;;16.30;98889.00;;;;5050520;28;20041;-66
2023/05/08 03:37:54;;;;;;;10.98;8.93;;;;;16.20;98890.00;;;;5036580;28;20048;-66
2023/05/08 03:40:21;;;;;;;11.93;9.02;;;;;16.30;98884.00;;;;5054086;28;20552;-66
2023/05/08 03:42:49;;;;;;;10.15;8.60;;;;;16.30;98881.00;;;;5054212;28;20425;-66
2023/05/08 03:45:17;;;;;;;10.50;9.40;;;;;16.30;98880.00;;;;5037685;28;20083;-66
2023/05/08 03:47:44;;;;;;;41.72;32.40;;;;;16.30;98880.00;;;;5054436;28;20045;-66
2023/05/08 03:50:11;;;;;;;12.98;11.57;;;;;16.40;98875.00;;;;5053902;28;20049;-66
2023/05/08 03:52:38;;;;;;;10.07;9.07;;;;;16.40;98879.00;;;;5054180;28;20051;-66
2023/05/08 03:55:05;;;;;;;10.98;9.75;;;;;16.40;98879.00;;;;5054214;28;20412;-66
2023/05/08 03:57:44;;;;;;;9.70;8.38;;;;;16.30;98878.00;;;;5054208;28;20123;-66
2023/05/08 04:00:20;;;;;;;9.77;7.82;;;;;16.20;98884.00;;;;5053655;28;20080;-66
2023/05/08 04:03:01;;;;;;;10.05;8.23;;;;;16.20;98885.00;;;;5054138;28;20485;-66
2023/05/08 04:05:36;;;;;;;18.25;12.13;;;;;16.20;98882.00;;;;5037552;28;20057;-66
2023/05/08 04:08:19;;;;;;;9.52;8.15;;;;;16.30;98884.00;;;;5038091;28;20136;-66
2023/05/08 04:10:53;;;;;;;9.55;7.93;;;;;16.30;98891.00;;;;5037197;28;20049;-66
2023/05/08 04:13:27;;;;;;;9.35;8.07;;;;;16.30;98894.00;;;;5037332;28;20068;-65
2023/05/08 04:16:08;;;;;;;9.50;7.80;;;;;16.30;98890.00;;;;5053866;28;20102;-66
2023/05/08 04:18:40;;;;;;;9.35;8.43;;;;;16.30;98897.00;;;;5037354;28;20041;-66
2023/05/08 04:21:10;;;;;;;9.82;8.82;;;;;16.40;98898.00;;;;5053826;28;20049;-65
2023/05/08 04:23:40;;;;;;;9.65;8.65;;;;;16.40;98903.00;;;;5053519;28;20049;-67
2023/05/08 04:26:10;;;;;;;11.70;9.18;;;;;16.40;98903.00;;;;5054147;28;20045;-67
2023/05/08 04:28:37;;;;;;;10.68;9.35;;;;;16.30;98908.00;;;;5036890;28;20139;-65
2023/05/08 04:31:04;;;;;;;15.13;12.35;;;;;16.40;98902.00;;;;5037159;28;20092;-66
2023/05/08 04:33:33;;;;;;;10.35;9.13;;;;;16.30;98908.00;;;;5036973;28;20049;-66
2023/05/08 04:36:02;;;;;;;10.13;7.95;;;;;16.40;98911.00;;;;5053992;28;20116;-65
2023/05/08 04:38:30;;;;;;;9.77;8.57;;;;;16.30;98913.00;;;;5053613;28;20049;-66
2023/05/08 04:40:56;;;;;;;10.50;8.38;;;;;16.30;98915.00;;;;5053240;28;20056;-65
2023/05/08 04:43:23;;;;;;;10.45;8.13;;;;;16.20;98923.00;;;;5053595;28;20049;-66
2023/05/08 04:45:50;;;;;;;13.52;9.75;;;;;16.20;98925.00;;;;5053674;28;20755;-66
2023/05/08 04:48:17;;;;;;;10.70;9.00;;;;;16.20;98926.00;;;;5052696;28;20055;-66
2023/05/08 04:50:44;;;;;;;10.68;8.68;;;;;16.30;98924.00;;;;5052994;28;20071;-66
2023/05/08 04:53:10;;;;;;;9.93;8.50;;;;;16.40;98931.00;;;;5053391;28;20095;-66
2023/05/08 04:55:37;;;;;;;9.65;8.65;;;;;16.40;98928.00;;;;5053227;28;20045;-66
2023/05/08 04:58:04;;;;;;;11.88;9.77;;;;;16.40;98933.00;;;;5036489;28;20534;-66
2023/05/08 05:00:31;;;;;;;11.50;8.68;;;;;16.50;98924.00;;;;5053118;28;20114;-65
2023/05/08 05:02:58;;;;;;;11.95;8.68;;;;;16.60;98931.00;;;;5054370;28;20554;-67
2023/05/08 05:05:25;;;;;;;10.02;9.02;;;;;16.70;98939.00;;;;5052770;28;20415;-68
2023/05/08 05:07:52;;;;;;;11.05;9.07;;;;;16.70;98936.00;;;;5052868;28;20049;-68
2023/05/08 05:10:19;;;;;;;10.95;8.75;;;;;16.80;98929.00;;;;5052839;28;20135;-68
2023/05/08 05:12:46;;;;;;;9.48;8.48;;;;;16.80;98936.00;;;;5052956;28;20037;-66
2023/05/08 05:15:13;;;;;;;9.98;8.70;;;;;16.70;98940.00;;;;5054376;28;20041;-67
2023/05/08 05:17:40;;;;;;;9.20;8.27;;;;;16.70;98935.00;;;;5052905;28;20052;-67
2023/05/08 05:20:07;;;;;;;9.40;8.50;;;;;16.70;98929.00;;;;5052243;28;20513;-67
2023/05/08 05:22:35;;;;;;;9.57;8.60;;;;;16.60;98935.00;;;;5052702;28;20040;-65
2023/05/08 05:25:01;;;;;;;8.98;8.07;;;;;16.60;98935.00;;;;5053878;28;20044;-65
2023/05/08 05:27:28;;;;;;;9.77;8.40;;;;;16.60;98928.00;;;;5052614;28;20490;-65
2023/05/08 05:29:54;;;;;;;9.35;8.43;;;;;16.70;98945.00;;;;5052588;28;20408;-65
2023/05/08 05:32:21;;;;;;;13.10;9.77;;;;;16.60;98938.00;;;;5035990;28;20036;-65
2023/05/08 05:34:48;;;;;;;11.65;10.45;;;;;16.60;98939.00;;;;5052274;28;20052;-66
2023/05/08 05:37:14;;;;;;;13.50;11.00;;;;;16.60;98945.00;;;;5052426;28;20060;-65
2023/05/08 05:39:41;;;;;;;13.57;11.10;;;;;16.60;98948.00;;;;5053567;28;20499;-65
2023/05/08 05:42:08;;;;;;;12.90;10.23;;;;;16.60;98950.00;;;;5051987;28;20052;-65
2023/05/08 05:44:35;;;;;;;16.52;12.27;;;;;16.60;98950.00;;;;5052102;28;20493;-65
2023/05/08 05:47:04;;;;;;;15.15;11.88;;;;;16.60;98948.00;;;;5052261;28;20049;-66
2023/05/08 05:49:31;;;;;;;19.52;14.70;;;;;16.60;98951.00;;;;5051800;28;20045;-67
2023/05/08 05:51:57;;;;;;;19.50;14.43;;;;;16.60;98960.00;;;;5052166;28;20406;-68
2023/05/08 05:54:24;;;;;;;20.35;14.82;;;;;16.60;98959.00;;;;5053233;28;20452;-68
2023/05/08 05:56:50;;;;;;;21.88;15.52;;;;;16.50;98958.00;;;;5051784;28;20055;-67
2023/05/08 05:59:17;;;;;;;20.25;15.98;;;;;16.50;98949.00;;;;5051891;28;20075;-68
2023/05/08 06:01:44;;;;;;;19.73;14.77;;;;;16.50;98956.00;;;;5035453;28;20049;-68
2023/05/08 06:04:11;;;;;;;20.00;15.60;;;;;16.60;98963.00;;;;5051818;28;20090;-66
2023/05/08 06:06:38;;;;;;;21.52;17.15;;;;;16.60;98954.00;;;;5051652;28;20052;-66
2023/05/08 06:09:05;;;;;;;21.70;17.30;;;;;16.50;98958.00;;;;5051790;28;20048;-66
2023/05/08 06:11:32;;;;;;;24.35;17.92;;;;;16.50;98959.00;;;;5051532;28;20045;-66
2023/05/08 06:13:59;;;;;;;25.92;18.73;;;;;16.50;98950.00;;;;5051547;28;20048;-66
2023/05/08 06:16:25;;;;;;;24.17;18.38;;;;;16.40;98951.00;;;;5051578;28;20049;-67
2023/05/08 06:18:52;;;;;;;26.70;19.73;;;;;16.40;98946.00;;;;5051514;28;20047;-67
2023/05/08 06:21:19;;;;;;;27.90;20.15;;;;;16.40;98947.00;;;;5052635;28;20048;-67
2023/05/08 06:23:45;;;;;;;28.17;20.75;;;;;16.50;98941.00;;;;5052637;28;20044;-67
2023/05/08 06:26:12;;;;;;;30.67;21.27;;;;;16.60;98950.00;;;;5051487;28;20045;-67
2023/05/08 06:28:38;;;;;;;27.02;20.02;;;;;16.60;98952.00;;;;5052595;28;20049;-67
2023/05/08 06:31:05;;;;;;;27.63;20.60;;;;;16.60;98958.00;;;;5052538;28;20081;-66
2023/05/08 06:33:31;;;;;;;27.92;20.52;;;;;16.60;98950.00;;;;5034946;28;20512;-66
2023/05/08 06:35:58;;;;;;;30.15;20.92;;;;;16.60;98952.00;;;;5051852;28;20045;-67
2023/05/08 06:38:24;;;;;;;28.33;20.40;;;;;16.70;98956.00;;;;5052504;28;20041;-67
2023/05/08 06:40:52;;;;;;;32.25;22.10;;;;;16.70;98950.00;;;;5052494;28;20052;-67
2023/05/08 06:43:19;;;;;;;33.20;21.33;;;;;16.80;98955.00;;;;5059992;28;20079;-66
2023/05/08 06:45:46;;;;;;;31.55;21.15;;;;;16.80;98952.00;;;;5057990;28;20053;-66
2023/05/08 06:48:12;;;;;;;31.13;21.98;;;;;16.80;98955.00;;;;5068514;28;20049;-67
2023/05/08 06:50:39;;;;;;;30.02;21.73;;;;;16.80;98950.00;;;;5051879;28;20095;-67
2023/05/08 06:53:06;;;;;;;31.20;21.65;;;;;16.90;98947.00;;;;5052832;28;20041;-66
2023/05/08 06:55:33;;;;;;;32.65;21.88;;;;;16.90;98957.00;;;;5052842;28;20047;-66
2023/05/08 06:57:59;;;;;;;29.63;20.17;;;;;16.90;98953.00;;;;5052656;28;20052;-66
2023/05/08 07:00:26;;;;;;;33.85;21.75;;;;;16.90;98951.00;;;;5051512;28;20052;-66
2023/05/08 07:02:53;;;;;;;32.40;21.23;;;;;17.00;98948.00;;;;5051270;28;20045;-66
2023/05/08 07:05:19;;;;;;;30.88;20.10;;;;;17.10;98955.00;;;;5051091;28;20079;-66
2023/05/08 07:07:46;;;;;;;29.10;19.85;;;;;17.20;98955.00;;;;5052163;28;20052;-66
2023/05/08 07:10:13;;;;;;;27.52;19.38;;;;;17.20;98965.00;;;;5051053;28;20045;-67
2023/05/08 07:12:39;;;;;;;29.67;19.88;;;;;17.20;98956.00;;;;5053143;28;20049;-67
2023/05/08 07:15:07;;;;;;;26.27;18.63;;;;;17.20;98965.00;;;;5056641;28;20048;-67
2023/05/08 07:17:50;;;;;;;;;;;;;17.10;98965.00;;;;5041374;28;20044;-67
2023/05/08 07:20:17;;;;;;;32.20;21.25;;;;;17.10;98969.00;;;;5054423;28;20331;-67
2023/05/08 07:22:43;;;;;;;36.08;22.23;;;;;17.20;98970.00;;;;5054655;28;20077;-67
2023/05/08 07:25:10;;;;;;;31.48;20.83;;;;;17.10;98975.00;;;;5056094;28;20053;-67
2023/05/08 07:27:37;;;;;;;34.80;21.52;;;;;17.10;98970.00;;;;5056458;28;20041;-66
2023/05/08 07:30:04;;;;;;;33.10;21.88;;;;;17.00;98971.00;;;;5054598;28;20037;-66
2023/05/08 07:32:30;;;;;;;31.05;21.75;;;;;17.10;98978.00;;;;5054480;28;20127;-66
2023/05/08 07:34:57;;;;;;;32.90;21.23;;;;;17.00;98979.00;;;;5055573;28;20409;-66
2023/05/08 07:37:24;;;;;;;37.60;23.75;;;;;16.90;98977.00;;;;5055782;28;20045;-66
2023/05/08 07:39:51;;;;;;;32.40;22.92;;;;;16.80;98975.00;;;;5055679;28;20498;-66
2023/05/08 07:42:17;;;;;;;35.63;22.70;;;;;16.80;98973.00;;;;5055519;28;20037;-67
2023/05/08 07:44:44;;;;;;;33.63;23.35;;;;;16.80;98976.00;;;;5037681;28;20106;-66
2023/05/08 07:47:20;;;;;;;32.95;22.02;;;;;16.80;98970.00;;;;5039403;28;20052;-65
2023/05/08 07:49:47;;;;;;;37.03;23.80;;;;;16.80;98972.00;;;;5055641;28;20509;-66
2023/05/08 07:52:13;;;;;;;35.10;23.17;;;;;16.80;98977.00;;;;5054374;28;20490;-67
2023/05/08 07:54:40;;;;;;;37.72;24.55;;;;;16.70;98984.00;;;;5055459;28;20063;-67
2023/05/08 07:57:06;;;;;;;34.80;22.73;;;;;16.70;98986.00;;;;5055651;28;20052;-67
2023/05/08 07:59:33;;;;;;;38.25;23.23;;;;;16.80;98985.00;;;;5037510;28;20056;-67
2023/05/08 08:01:59;;;;;;;31.90;21.58;;;;;16.90;98988.00;;;;5054183;28;20037;-68
2023/05/08 08:04:26;;;;;;;33.20;22.50;;;;;16.80;98981.00;;;;5054835;28;20044;-68
2023/05/08 08:06:54;;;;;;;32.25;22.23;;;;;16.80;98986.00;;;;5055605;28;20045;-68
2023/05/08 08:09:21;;;;;;;34.25;22.33;;;;;16.80;98986.00;;;;5037122;28;20053;-68
2023/05/08 08:11:47;;;;;;;39.42;22.42;;;;;16.80;98985.00;;;;5053615;28;20494;-68
2023/05/08 08:14:14;;;;;;;35.25;22.48;;;;;16.90;98986.00;;;;5053796;28;20049;-68
2023/05/08 08:16:43;;;;;;;34.97;22.30;;;;;16.90;98993.00;;;;5055121;28;20037;-68
2023/05/08 08:19:10;;;;;;;33.20;21.92;;;;;16.90;98993.00;;;;5053725;28;20048;-68
2023/05/08 08:21:43;;;;;;;38.03;23.17;;;;;16.90;98994.00;;;;5053800;28;20041;-69
2023/05/08 08:24:10;;;;;;;30.83;20.45;;;;;17.00;99001.00;;;;5054938;28;20509;-68
2023/05/08 08:26:36;;;;;;;31.83;21.25;;;;;17.10;99001.00;;;;5053460;28;20076;-68
2023/05/08 08:29:03;;;;;;;34.60;22.50;;;;;17.20;99003.00;;;;5054330;28;20045;-68
2023/05/08 08:31:30;;;;;;;32.58;21.90;;;;;17.20;98998.00;;;;5054276;28;20045;-68
2023/05/08 08:33:57;;;;;;;32.40;21.77;;;;;17.10;98999.00;;;;5054442;28;20585;-68
2023/05/08 08:36:23;;;;;;;31.88;20.67;;;;;17.20;98999.00;;;;5054551;28;20052;-68
2023/05/08 08:38:50;;;;;;;32.90;22.05;;;;;17.30;99003.00;;;;5036644;28;20088;-68
2023/05/08 08:41:16;;;;;;;34.42;22.10;;;;;17.30;99004.00;;;;5054432;28;20037;-68
2023/05/08 08:43:43;;;;;;;34.40;20.77;;;;;17.40;98998.00;;;;5054286;28;20045;-68
2023/05/08 08:46:13;;;;;;;31.70;21.00;;;;;17.50;99002.00;;;;5053059;28;20045;-68
2023/05/08 08:48:45;;;;;;;30.67;20.15;;;;;17.50;99011.00;;;;5054506;28;20111;-68
2023/05/08 08:51:27;;;;;;;32.45;21.75;;;;;17.30;99008.00;;;;5054426;28;20053;-68
2023/05/08 08:54:04;;;;;;;30.42;20.52;;;;;17.20;99009.00;;;;5054256;28;20045;-68
2023/05/08 08:56:32;;;;;;;30.70;20.35;;;;;17.20;99016.00;;;;5053027;28;20530;-67
2023/05/08 08:58:59;;;;;;;32.35;22.10;;;;;17.20;99010.00;;;;5054090;28;20053;-68
2023/05/08 09:01:28;;;;;;;29.45;20.75;;;;;17.20;99010.00;;;;5036268;28;20104;-68
2023/05/08 09:03:58;;;;;;;35.72;22.42;;;;;17.20;99010.00;;;;5054069;28;20037;-68
2023/05/08 09:06:26;;;;;;;33.67;19.95;;;;;17.30;99009.00;;;;5054065;28;20486;-67
2023/05/08 09:08:55;;;;;;;27.38;18.55;;;;;17.40;99015.00;;;;5052557;28;20106;-68
2023/05/08 09:11:22;;;;;;;27.63;19.77;;;;;17.30;99015.00;;;;5052829;28;20095;-68
2023/05/08 09:13:49;;;;;;;26.50;19.20;;;;;17.20;99021.00;;;;5054276;28;20041;-68
2023/05/08 09:16:16;;;;;;;28.23;18.58;;;;;17.20;99022.00;;;;5053803;28;20521;-68
2023/05/08 09:18:42;;;;;;;25.95;18.88;;;;;17.20;99026.00;;;;5053803;28;20041;-68
2023/05/08 09:21:10;;;;;;;27.10;19.35;;;;;17.20;99023.00;;;;5053020;28;20094;-67
2023/05/08 09:23:53;;;;;;;29.70;18.80;;;;;17.30;99029.00;;;;5052784;28;20040;-67
2023/05/08 09:26:32;;;;;;;26.13;18.92;;;;;17.20;99022.00;;;;5052806;28;20501;-67
2023/05/08 09:29:10;;;;;;;25.25;18.83;;;;;17.20;99022.00;;;;5052424;28;20053;-67
2023/05/08 09:31:40;;;;;;;27.55;18.77;;;;;17.30;99020.00;;;;5053558;28;20041;-68
2023/05/08 09:34:08;;;;;;;26.17;18.27;;;;;17.30;99022.00;;;;5053209;28;20041;-66
2023/05/08 09:36:35;;;;;;;23.02;16.50;;;;;17.30;99027.00;;;;5035745;28;20048;-67
2023/05/08 09:39:02;;;;;;;32.85;17.98;;;;;17.30;99026.00;;;;5052031;28;20084;-67
2023/05/08 09:41:28;;;;;;;21.73;17.02;;;;;17.50;99030.00;;;;5052300;28;20524;-67
2023/05/08 09:44:03;;;;;;;22.83;17.02;;;;;17.50;99023.00;;;;5052356;28;20518;-68
2023/05/08 09:46:31;;;;;;;21.77;15.60;;;;;17.50;99030.00;;;;5053502;28;20059;-68
2023/05/08 09:48:59;;;;;;;18.33;14.73;;;;;17.60;99028.00;;;;5053050;28;20045;-67
2023/05/08 09:51:28;;;;;;;17.10;13.40;;;;;17.60;99033.00;;;;5053510;28;20052;-67
2023/05/08 09:53:56;;;;;;;23.05;13.70;;;;;17.70;99028.00;;;;5053128;28;20040;-67
2023/05/08 09:56:38;;;;;;;16.10;12.50;;;;;17.80;99030.00;;;;5052111;28;20488;-67
2023/05/08 09:59:22;;;;;;;16.27;12.27;;;;;18.00;99033.00;;;;5051682;28;20051;-67
2023/05/08 10:01:49;;;;;;;13.02;11.60;;;;;18.10;99041.00;;;;5053211;28;20044;-66
2023/05/08 10:04:16;;;;;;;15.18;12.32;;;;;18.20;99037.00;;;;5052875;28;20402;-66
2023/05/08 10:06:42;;;;;;;15.50;12.45;;;;;18.30;99039.00;;;;5053104;28;20049;-67
2023/05/08 10:09:13;;;;;;;14.32;11.77;;;;;18.40;99033.00;;;;5051742;28;20049;-66
2023/05/08 10:11:50;;;;;;;15.32;12.27;;;;;18.50;99033.00;;;;5052974;28;20045;-67
2023/05/08 10:14:18;;;;;;;14.13;11.35;;;;;18.60;99036.00;;;;5053110;28;20067;-67
2023/05/08 10:16:47;;;;;;;13.20;11.40;;;;;18.60;99030.00;;;;5053141;28;20052;-67
2023/05/08 10:19:16;;;;;;;13.30;10.98;;;;;18.60;99034.00;;;;5051185;28;20402;-67
2023/05/08 10:21:48;;;;;;;14.15;11.73;;;;;18.60;99033.00;;;;5052912;28;20124;-67
2023/05/08 10:24:31;;;;;;;15.35;11.88;;;;;18.60;99033.00;;;;5052875;28;20040;-67
2023/05/08 10:27:12;;;;;;;13.70;12.20;;;;;18.70;99036.00;;;;5051792;28;20049;-68
2023/05/08 10:29:52;;;;;;;14.40;12.90;;;;;18.70;99041.00;;;;5050798;28;20087;-68
2023/05/08 10:32:20;;;;;;;15.85;13.23;;;;;18.70;99034.00;;;;5051371;28;20119;-67
2023/05/08 10:35:00;;;;;;;14.68;13.10;;;;;18.80;99040.00;;;;5052505;28;20041;-67
2023/05/08 10:37:28;;;;;;;16.00;12.98;;;;;18.90;99026.00;;;;5053119;28;20041;-66
2023/05/08 10:39:56;;;;;;;17.88;13.18;;;;;19.00;99029.00;;;;5051343;28;20052;-67
2023/05/08 10:42:32;;;;;;;15.63;13.65;;;;;19.00;99031.00;;;;5057116;28;20041;-67
2023/05/08 10:45:04;;;;;;;17.67;12.30;;;;;19.40;99020.00;;;;5072842;28;20068;-67
2023/05/08 10:47:46;;;;;;;16.05;12.70;;;;;19.70;99011.00;;;;5068177;28;20087;-67
2023/05/08 10:50:22;;;;;;;15.55;12.43;;;;;19.90;99008.00;;;;5052627;28;20479;-67
2023/05/08 10:53:00;;;;;;;14.48;12.20;;;;;20.30;99006.00;;;;5051343;28;20393;-67
2023/05/08 10:55:29;;;;;;;15.75;13.02;;;;;20.70;99004.00;;;;5052600;28;20114;-67
2023/05/08 10:58:15;;;;;;;17.80;11.90;;;;;21.10;99016.00;;;;5052712;28;20103;-66
2023/05/08 11:00:51;;;;;;;14.77;12.23;;;;;21.30;99016.00;;;;5050582;28;20049;-67
2023/05/08 11:03:26;;;;;;;17.05;12.32;;;;;21.20;99006.00;;;;5051624;28;20121;-67
2023/05/08 11:06:00;;;;;;;15.23;11.50;;;;;21.40;99004.00;;;;5051091;28;20053;-68
2023/05/08 11:08:28;;;;;;;14.73;12.25;;;;;21.70;98997.00;;;;5052664;28;20052;-67
2023/05/08 11:10:58;;;;;;;14.75;11.85;;;;;21.80;98996.00;;;;5052549;28;20048;-68
2023/05/08 11:13:31;;;;;;;13.35;11.45;;;;;22.00;98997.00;;;;5035108;28;20052;-67
2023/05/08 11:15:58;;;;;;;11.40;10.20;;;;;22.10;98993.00;;;;5053785;28;20128;-68
2023/05/08 11:18:26;;;;;;;11.85;10.38;;;;;22.20;98992.00;;;;5052753;28;20048;-67
2023/05/08 11:21:14;;;;;;;10.48;9.48;;;;;22.30;98989.00;;;;5051682;28;20041;-69
2023/05/08 11:23:41;;;;;;;12.82;10.27;;;;;22.10;98997.00;;;;5052447;28;20049;-68
2023/05/08 11:26:15;;;;;;;11.73;10.32;;;;;21.90;98988.00;;;;5052664;28;20103;-69
2023/05/08 11:28:57;;;;;;;11.93;10.25;;;;;21.90;98997.00;;;;5052372;28;20049;-68
2023/05/08 11:31:52;;;;;;;12.13;9.77;;;;;21.70;98993.00;;;;5051452;28;20064;-69
2023/05/08 11:34:49;;;;;;;12.27;10.43;;;;;21.50;98984.00;;;;5051767;28;20045;-69
2023/05/08 11:37:17;;;;;;;11.55;10.10;;;;;21.50;98986.00;;;;5042682;28;20050;-67
2023/05/08 11:39:43;;;;;;;11.52;9.45;;;;;21.50;98992.00;;;;5051110;28;20604;-68
2023/05/08 11:42:32;;;;;;;9.93;8.82;;;;;21.50;98990.00;;;;5052185;28;20041;-68
2023/05/08 11:45:11;;;;;;;10.38;8.98;;;;;21.50;98978.00;;;;5052541;28;20053;-68
2023/05/08 11:47:44;;;;;;;11.95;10.05;;;;;21.80;98981.00;;;;5052437;28;20045;-68
2023/05/08 11:50:12;;;;;;;10.13;8.15;;;;;21.80;98980.00;;;;5050883;28;20063;-68
2023/05/08 11:52:41;;;;;;;10.38;8.85;;;;;21.90;98979.00;;;;5051945;28;20044;-68
2023/05/08 11:55:10;;;;;;;9.73;8.57;;;;;22.00;98988.00;;;;5050851;28;20061;-68
2023/05/08 11:57:37;;;;;;;9.95;8.95;;;;;22.10;98983.00;;;;5051500;28;20056;-68
2023/05/08 12:00:09;;;;;;;10.80;8.30;;;;;22.20;98972.00;;;;5056129;28;20043;-68
2023/05/08 12:02:41;;;;;;;9.27;8.38;;;;;22.50;98984.00;;;;5055840;28;20045;-68
2023/05/08 12:05:09;;;;;;;9.27;8.13;;;;;22.50;98981.00;;;;5056164;28;20064;-68
2023/05/08 12:07:45;;;;;;;8.25;7.45;;;;;22.50;98983.00;;;;5054549;28;20074;-68
2023/05/08 12:10:12;;;;;;;8.70;7.90;;;;;22.50;98978.00;;;;5039014;28;20056;-68
2023/05/08 12:12:40;;;;;;;9.18;7.80;;;;;22.50;98975.00;;;;5057969;28;20049;-69
2023/05/08 12:15:12;;;;;;;8.60;6.47;;;;;22.50;98983.00;;;;5054903;28;20056;-69
2023/05/08 12:17:39;;;;;;;8.38;7.35;;;;;22.70;98985.00;;;;5056064;28;20098;-69
2023/05/08 12:20:14;;;;;;;8.35;7.55;;;;;22.70;98979.00;;;;5054998;28;20045;-69
2023/05/08 12:22:49;;;;;;;9.65;7.38;;;;;22.90;98978.00;;;;5055794;28;20124;-68